sensor_id;sensor_type;location;lat;lon;timestamp;pressure;altitude;pressure_sealevel;temperature;humidity
13241;BME280;6687;47.790;7.322;2023-02-19T06:11:29;99858.66;;;11.66;74.65
13241;BME280;6687;47.790;7.322;2023-02-19T06:13:56;99861.97;;;11.53;74.81
13241;BME280;6687;47.790;7.322;2023-02-19T06:16:23;99853.69;;;11.85;74.19
13241;BME280;6687;47.790;7.322;2023-02-19T06:18:50;99869.66;;;11.45;74.86
13241;BME280;6687;47.790;7.322;2023-02-19T06:21:17;99870.50;;;11.43;74.90
13241;BME280;6687;47.790;7.322;2023-02-19T06:23:44;99865.91;;;11.90;73.77
13241;BME280;6687;47.790;7.322;2023-02-19T06:26:13;99882.88;;;11.65;74.53
13241;BME280;6687;47.790;7.322;2023-02-19T06:28:43;99887.91;;;11.53;75.24
13241;BME280;6687;47.790;7.322;2023-02-19T06:31:11;99889.50;;;11.43;76.17
13241;BME280;6687;47.790;7.322;2023-02-19T06:33:39;99896.13;;;11.21;76.35
13241;BME280;6687;47.790;7.322;2023-02-19T06:36:08;99896.31;;;11.33;77.19
13241;BME280;6687;47.790;7.322;2023-02-19T06:38:36;99901.31;;;11.21;76.93
13241;BME280;6687;47.790;7.322;2023-02-19T06:41:04;99900.53;;;11.27;76.37
13241;BME280;6687;47.790;7.322;2023-02-19T06:43:32;99906.56;;;11.24;77.13
13241;BME280;6687;47.790;7.322;2023-02-19T06:46:00;99909.66;;;11.02;77.14
13241;BME280;6687;47.790;7.322;2023-02-19T06:48:28;99921.56;;;10.87;78.36
13241;BME280;6687;47.790;7.322;2023-02-19T06:50:56;99915.78;;;11.05;78.24
13241;BME280;6687;47.790;7.322;2023-02-19T06:53:23;99920.84;;;10.98;78.87
13241;BME280;6687;47.790;7.322;2023-02-19T06:55:57;99921.38;;;10.78;78.57
13241;BME280;6687;47.790;7.322;2023-02-19T06:58:23;99923.69;;;10.60;79.46
13241;BME280;6687;47.790;7.322;2023-02-19T07:00:50;99927.06;;;10.55;80.24
13241;BME280;6687;47.790;7.322;2023-02-19T07:03:19;99923.91;;;10.73;79.05
13241;BME280;6687;47.790;7.322;2023-02-19T07:05:46;99932.94;;;10.45;80.76
13241;BME280;6687;47.790;7.322;2023-02-19T07:08:12;99944.63;;;10.72;80.42
13241;BME280;6687;47.790;7.322;2023-02-19T07:10:41;99946.00;;;10.51;80.88
13241;BME280;6687;47.790;7.322;2023-02-19T07:13:08;99943.41;;;10.51;80.83
13241;BME280;6687;47.790;7.322;2023-02-19T07:15:35;99948.09;;;10.72;80.24
13241;BME280;6687;47.790;7.322;2023-02-19T07:18:02;99957.91;;;10.90;79.78
13241;BME280;6687;47.790;7.322;2023-02-19T07:20:30;99944.84;;;10.84;79.64
13241;BME280;6687;47.790;7.322;2023-02-19T07:22:57;99960.41;;;10.84;79.89
13241;BME280;6687;47.790;7.322;2023-02-19T07:25:24;99958.41;;;10.69;80.58
13241;BME280;6687;47.790;7.322;2023-02-19T07:27:51;99968.56;;;10.57;81.12
13241;BME280;6687;47.790;7.322;2023-02-19T07:30:18;99956.69;;;10.68;80.06
13241;BME280;6687;47.790;7.322;2023-02-19T07:32:45;99964.38;;;10.65;80.43
13241;BME280;6687;47.790;7.322;2023-02-19T07:35:11;99967.88;;;10.67;80.71
13241;BME280;6687;47.790;7.322;2023-02-19T07:37:40;99972.50;;;10.85;80.08
13241;BME280;6687;47.790;7.322;2023-02-19T07:40:07;99980.00;;;10.70;80.21
13241;BME280;6687;47.790;7.322;2023-02-19T07:42:34;99972.63;;;10.93;79.66
13241;BME280;6687;47.790;7.322;2023-02-19T07:45:01;99981.75;;;10.69;80.20
13241;BME280;6687;47.790;7.322;2023-02-19T07:47:28;99982.09;;;10.89;80.37
13241;BME280;6687;47.790;7.322;2023-02-19T07:49:55;99981.59;;;10.62;80.01
13241;BME280;6687;47.790;7.322;2023-02-19T07:52:22;99985.56;;;10.91;79.53
13241;BME280;6687;47.790;7.322;2023-02-19T07:54:50;99995.94;;;10.91;79.48
13241;BME280;6687;47.790;7.322;2023-02-19T07:57:17;99997.16;;;11.13;78.89
13241;BME280;6687;47.790;7.322;2023-02-19T07:59:43;100009.88;;;10.97;79.56
13241;BME280;6687;47.790;7.322;2023-02-19T08:02:14;100002.94;;;10.95;79.59
13241;BME280;6687;47.790;7.322;2023-02-19T08:04:59;100011.19;;;11.25;79.02
13241;BME280;6687;47.790;7.322;2023-02-19T08:07:30;100007.69;;;11.21;78.83
13241;BME280;6687;47.790;7.322;2023-02-19T08:09:58;100010.47;;;11.33;78.46
13241;BME280;6687;47.790;7.322;2023-02-19T08:12:38;100019.03;;;11.29;78.41
13241;BME280;6687;47.790;7.322;2023-02-19T08:15:22;100024.31;;;11.35;78.37
13241;BME280;6687;47.790;7.322;2023-02-19T08:17:49;100026.28;;;11.49;77.95
13241;BME280;6687;47.790;7.322;2023-02-19T08:20:16;100024.56;;;11.51;78.09
13241;BME280;6687;47.790;7.322;2023-02-19T08:22:43;100028.81;;;11.46;77.33
13241;BME280;6687;47.790;7.322;2023-02-19T08:25:11;100031.78;;;11.70;76.40
13241;BME280;6687;47.790;7.322;2023-02-19T08:27:37;100025.03;;;11.82;76.50
13241;BME280;6687;47.790;7.322;2023-02-19T08:30:05;100026.19;;;12.01;75.85
13241;BME280;6687;47.790;7.322;2023-02-19T08:32:33;100035.63;;;11.94;75.48
13241;BME280;6687;47.790;7.322;2023-02-19T08:35:00;100030.59;;;12.09;74.88
13241;BME280;6687;47.790;7.322;2023-02-19T08:37:26;100032.22;;;11.98;74.82
13241;BME280;6687;47.790;7.322;2023-02-19T08:39:53;100038.31;;;12.03;74.18
13241;BME280;6687;47.790;7.322;2023-02-19T08:42:21;100039.69;;;12.42;73.95
13241;BME280;6687;47.790;7.322;2023-02-19T08:44:48;100039.88;;;12.58;72.74
13241;BME280;6687;47.790;7.322;2023-02-19T08:47:15;100050.28;;;12.61;72.55
13241;BME280;6687;47.790;7.322;2023-02-19T08:49:41;100047.66;;;12.56;72.33
13241;BME280;6687;47.790;7.322;2023-02-19T08:52:08;100043.47;;;12.70;72.44
13241;BME280;6687;47.790;7.322;2023-02-19T08:54:35;100049.81;;;12.96;71.73
13241;BME280;6687;47.790;7.322;2023-02-19T08:57:02;100043.66;;;12.87;70.29
13241;BME280;6687;47.790;7.322;2023-02-19T08:59:31;100045.56;;;13.07;70.95
13241;BME280;6687;47.790;7.322;2023-02-19T09:01:58;100046.59;;;13.24;70.22
13241;BME280;6687;47.790;7.322;2023-02-19T09:04:24;100044.84;;;13.25;70.40
13241;BME280;6687;47.790;7.322;2023-02-19T09:06:51;100039.78;;;13.39;69.70
13241;BME280;6687;47.790;7.322;2023-02-19T09:09:18;100042.44;;;13.42;69.38
13241;BME280;6687;47.790;7.322;2023-02-19T09:11:45;100047.75;;;13.60;68.89
13241;BME280;6687;47.790;7.322;2023-02-19T09:14:12;100051.16;;;13.48;69.25
13241;BME280;6687;47.790;7.322;2023-02-19T09:16:40;100052.97;;;13.60;68.69
13241;BME280;6687;47.790;7.322;2023-02-19T09:19:06;100048.75;;;13.78;68.61
13241;BME280;6687;47.790;7.322;2023-02-19T09:21:33;100046.78;;;13.41;67.22
13241;BME280;6687;47.790;7.322;2023-02-19T09:24:00;100043.63;;;13.95;68.15
13241;BME280;6687;47.790;7.322;2023-02-19T09:26:27;100058.41;;;13.94;67.44
13241;BME280;6687;47.790;7.322;2023-02-19T09:28:53;100047.06;;;13.87;65.39
13241;BME280;6687;47.790;7.322;2023-02-19T09:31:20;100046.28;;;13.99;66.18
13241;BME280;6687;47.790;7.322;2023-02-19T09:33:48;100049.69;;;13.92;65.75
13241;BME280;6687;47.790;7.322;2023-02-19T09:36:16;100046.19;;;13.81;66.83
13241;BME280;6687;47.790;7.322;2023-02-19T09:38:43;100042.66;;;13.76;67.19
13241;BME280;6687;47.790;7.322;2023-02-19T09:41:16;100047.19;;;14.09;67.15
13241;BME280;6687;47.790;7.322;2023-02-19T09:43:44;100053.03;;;13.72;66.39
13241;BME280;6687;47.790;7.322;2023-02-19T09:46:21;100060.72;;;13.49;66.18
13241;BME280;6687;47.790;7.322;2023-02-19T09:48:52;100057.19;;;13.44;66.68
13241;BME280;6687;47.790;7.322;2023-02-19T09:51:20;100058.06;;;13.46;66.14
13241;BME280;6687;47.790;7.322;2023-02-19T09:53:49;100065.16;;;13.61;68.01
13241;BME280;6687;47.790;7.322;2023-02-19T09:56:17;100061.47;;;13.33;67.42
13241;BME280;6687;47.790;7.322;2023-02-19T09:58:47;100061.69;;;13.65;68.93
13241;BME280;6687;47.790;7.322;2023-02-19T10:01:14;100061.56;;;13.50;68.07
13241;BME280;6687;47.790;7.322;2023-02-19T10:03:43;100061.81;;;13.81;70.22
13241;BME280;6687;47.790;7.322;2023-02-19T10:06:15;100066.91;;;13.68;68.59
13241;BME280;6687;47.790;7.322;2023-02-19T10:08:45;100069.66;;;13.88;70.10
13241;BME280;6687;47.790;7.322;2023-02-19T10:11:13;100063.56;;;13.88;68.72
13241;BME280;6687;47.790;7.322;2023-02-19T10:13:42;100066.19;;;13.85;69.94
13241;BME280;6687;47.790;7.322;2023-02-19T10:16:11;100065.34;;;13.92;70.40
13241;BME280;6687;47.790;7.322;2023-02-19T10:18:42;100061.84;;;13.87;69.89
13241;BME280;6687;47.790;7.322;2023-02-19T10:21:13;100066.25;;;13.97;69.85
13241;BME280;6687;47.790;7.322;2023-02-19T10:23:42;100054.03;;;13.90;69.27
13241;BME280;6687;47.790;7.322;2023-02-19T10:26:09;100055.66;;;13.69;68.04
13241;BME280;6687;47.790;7.322;2023-02-19T10:28:36;100053.78;;;13.55;68.51
13241;BME280;6687;47.790;7.322;2023-02-19T10:31:06;100053.78;;;13.51;66.59
13241;BME280;6687;47.790;7.322;2023-02-19T10:33:47;100044.28;;;13.55;65.99
13241;BME280;6687;47.790;7.322;2023-02-19T10:36:23;100043.28;;;13.39;65.94
13241;BME280;6687;47.790;7.322;2023-02-19T10:38:51;100051.25;;;13.62;67.78
13241;BME280;6687;47.790;7.322;2023-02-19T10:41:20;100063.47;;;13.74;67.07
13241;BME280;6687;47.790;7.322;2023-02-19T10:43:53;100059.75;;;13.40;63.65
13241;BME280;6687;47.790;7.322;2023-02-19T10:46:23;100066.44;;;13.11;63.28
13241;BME280;6687;47.790;7.322;2023-02-19T10:48:52;100068.69;;;13.72;65.85
13241;BME280;6687;47.790;7.322;2023-02-19T10:51:29;100069.44;;;13.58;63.81
13241;BME280;6687;47.790;7.322;2023-02-19T10:54:03;100078.28;;;13.80;64.39
13241;BME280;6687;47.790;7.322;2023-02-19T10:56:31;100070.47;;;13.80;67.30
13241;BME280;6687;47.790;7.322;2023-02-19T10:59:15;100065.38;;;13.95;65.92
13241;BME280;6687;47.790;7.322;2023-02-19T11:01:53;100065.16;;;13.61;63.23
13241;BME280;6687;47.790;7.322;2023-02-19T11:04:20;100060.09;;;13.86;63.75
13241;BME280;6687;47.790;7.322;2023-02-19T11:06:49;100058.38;;;13.85;63.60
13241;BME280;6687;47.790;7.322;2023-02-19T11:09:24;100061.06;;;13.99;66.15
13241;BME280;6687;47.790;7.322;2023-02-19T11:11:54;100059.22;;;13.81;59.41
13241;BME280;6687;47.790;7.322;2023-02-19T11:14:23;100059.13;;;13.67;58.21
13241;BME280;6687;47.790;7.322;2023-02-19T11:16:51;100064.38;;;13.73;57.91
13241;BME280;6687;47.790;7.322;2023-02-19T11:19:27;100070.63;;;14.04;60.28
13241;BME280;6687;47.790;7.322;2023-02-19T11:21:56;100074.09;;;14.06;59.61
13241;BME280;6687;47.790;7.322;2023-02-19T11:24:30;100070.56;;;13.95;57.36
13241;BME280;6687;47.790;7.322;2023-02-19T11:27:01;100077.44;;;13.84;54.92
13241;BME280;6687;47.790;7.322;2023-02-19T11:29:29;100082.69;;;13.87;53.86
13241;BME280;6687;47.790;7.322;2023-02-19T11:32:21;100072.03;;;13.56;52.35
13241;BME280;6687;47.790;7.322;2023-02-19T11:34:49;100080.72;;;13.58;52.79
13241;BME280;6687;47.790;7.322;2023-02-19T11:37:19;100086.03;;;13.70;52.82
13241;BME280;6687;47.790;7.322;2023-02-19T11:39:47;100088.53;;;13.55;52.64
13241;BME280;6687;47.790;7.322;2023-02-19T11:42:27;100082.50;;;13.59;52.40
13241;BME280;6687;47.790;7.322;2023-02-19T11:45:18;100085.00;;;13.48;52.64
13241;BME280;6687;47.790;7.322;2023-02-19T11:51:04;100077.38;;;13.71;52.08
13241;BME280;6687;47.790;7.322;2023-02-19T11:53:44;100080.03;;;13.82;51.51
13241;BME280;6687;47.790;7.322;2023-02-19T11:56:15;100079.16;;;13.80;52.17
13241;BME280;6687;47.790;7.322;2023-02-19T11:58:56;100073.84;;;13.66;51.86
13241;BME280;6687;47.790;7.322;2023-02-19T12:01:34;100073.09;;;13.84;52.00
13241;BME280;6687;47.790;7.322;2023-02-19T12:04:22;100068.09;;;14.17;52.19
13241;BME280;6687;47.790;7.322;2023-02-19T12:07:00;100065.53;;;14.32;53.22
13241;BME280;6687;47.790;7.322;2023-02-19T12:09:49;100068.91;;;14.09;55.27
13241;BME280;6687;47.790;7.322;2023-02-19T12:12:32;100064.63;;;14.21;54.12
13241;BME280;6687;47.790;7.322;2023-02-19T12:15:26;100063.69;;;14.03;54.21
13241;BME280;6687;47.790;7.322;2023-02-19T12:18:18;100056.84;;;14.30;55.13
13241;BME280;6687;47.790;7.322;2023-02-19T12:20:56;100050.63;;;14.02;54.75
13241;BME280;6687;47.790;7.322;2023-02-19T12:26:40;100043.69;;;14.01;53.73
13241;BME280;6687;47.790;7.322;2023-02-19T12:29:19;100048.88;;;14.02;53.92
13241;BME280;6687;47.790;7.322;2023-02-19T12:32:15;100053.16;;;13.85;53.24
13241;BME280;6687;47.790;7.322;2023-02-19T12:35:01;100052.25;;;13.81;53.46
13241;BME280;6687;47.790;7.322;2023-02-19T12:37:40;100055.66;;;13.72;53.07
13241;BME280;6687;47.790;7.322;2023-02-19T12:40:19;100056.66;;;13.91;53.09
13241;BME280;6687;47.790;7.322;2023-02-19T12:43:00;100065.25;;;13.80;53.45
13241;BME280;6687;47.790;7.322;2023-02-19T12:45:31;100073.19;;;13.98;52.77
13241;BME280;6687;47.790;7.322;2023-02-19T12:48:04;100075.59;;;13.67;52.53
13241;BME280;6687;47.790;7.322;2023-02-19T12:50:34;100077.56;;;13.99;52.30
13241;BME280;6687;47.790;7.322;2023-02-19T12:53:10;100065.22;;;13.77;52.09
13241;BME280;6687;47.790;7.322;2023-02-19T12:55:40;100068.75;;;13.82;52.93
13241;BME280;6687;47.790;7.322;2023-02-19T12:58:13;100066.22;;;13.94;52.49
13241;BME280;6687;47.790;7.322;2023-02-19T13:00:44;100063.50;;;13.76;52.29
13241;BME280;6687;47.790;7.322;2023-02-19T13:03:18;100061.84;;;13.87;51.85
13241;BME280;6687;47.790;7.322;2023-02-19T13:05:49;100053.22;;;13.97;52.14
13241;BME280;6687;47.790;7.322;2023-02-19T13:08:23;100055.84;;;13.99;51.96
13241;BME280;6687;47.790;7.322;2023-02-19T13:10:55;100050.72;;;14.17;52.63
13241;BME280;6687;47.790;7.322;2023-02-19T13:13:29;100037.56;;;13.91;51.91
13241;BME280;6687;47.790;7.322;2023-02-19T13:16:01;100037.63;;;14.03;52.77
13241;BME280;6687;47.790;7.322;2023-02-19T13:18:33;100047.03;;;13.84;52.50
13241;BME280;6687;47.790;7.322;2023-02-19T13:21:04;100049.56;;;13.67;52.72
13241;BME280;6687;47.790;7.322;2023-02-19T13:23:34;100040.84;;;13.62;52.85
13241;BME280;6687;47.790;7.322;2023-02-19T13:29:21;100062.56;;;13.66;53.03
13241;BME280;6687;47.790;7.322;2023-02-19T13:32:07;100053.81;;;13.53;53.45
13241;BME280;6687;47.790;7.322;2023-02-19T13:34:46;100052.09;;;13.60;53.23
13241;BME280;6687;47.790;7.322;2023-02-19T13:37:16;100041.59;;;13.46;53.64
13241;BME280;6687;47.790;7.322;2023-02-19T13:39:45;100047.94;;;13.88;54.35
13241;BME280;6687;47.790;7.322;2023-02-19T13:42:24;100053.94;;;13.71;53.14
13241;BME280;6687;47.790;7.322;2023-02-19T13:44:53;100061.69;;;13.65;53.57
13241;BME280;6687;47.790;7.322;2023-02-19T13:47:57;100058.25;;;13.69;53.44
13241;BME280;6687;47.790;7.322;2023-02-19T13:50:26;100054.00;;;13.84;54.14
13241;BME280;6687;47.790;7.322;2023-02-19T13:52:54;100042.69;;;13.79;53.60
13241;BME280;6687;47.790;7.322;2023-02-19T13:55:48;100043.63;;;13.90;53.24
13241;BME280;6687;47.790;7.322;2023-02-19T13:58:36;100042.88;;;14.14;53.95
13241;BME280;6687;47.790;7.322;2023-02-19T14:01:06;100044.69;;;14.32;53.53
13241;BME280;6687;47.790;7.322;2023-02-19T14:03:45;100036.75;;;14.01;52.58
13241;BME280;6687;47.790;7.322;2023-02-19T14:06:13;100046.25;;;13.96;52.00
13241;BME280;6687;47.790;7.322;2023-02-19T14:08:52;100034.00;;;13.78;52.18
13241;BME280;6687;47.790;7.322;2023-02-19T14:14:28;100034.13;;;14.04;51.54
13241;BME280;6687;47.790;7.322;2023-02-19T14:17:03;100027.28;;;14.19;51.25
13241;BME280;6687;47.790;7.322;2023-02-19T14:20:00;100030.56;;;13.81;51.07
13241;BME280;6687;47.790;7.322;2023-02-19T14:22:48;100031.53;;;14.03;51.05
13241;BME280;6687;47.790;7.322;2023-02-19T14:28:29;100033.00;;;13.59;51.65
13241;BME280;6687;47.790;7.322;2023-02-19T14:31:01;100040.13;;;13.85;51.13
13241;BME280;6687;47.790;7.322;2023-02-19T14:33:32;100029.66;;;13.80;51.97
13241;BME280;6687;47.790;7.322;2023-02-19T14:36:02;100040.22;;;13.99;51.80
13241;BME280;6687;47.790;7.322;2023-02-19T14:38:34;100024.53;;;13.91;52.32
13241;BME280;6687;47.790;7.322;2023-02-19T14:41:03;100031.47;;;13.89;53.03
13241;BME280;6687;47.790;7.322;2023-02-19T14:43:32;100037.41;;;13.69;53.57
13241;BME280;6687;47.790;7.322;2023-02-19T14:46:03;100047.00;;;13.75;55.23
13241;BME280;6687;47.790;7.322;2023-02-19T14:48:37;100037.53;;;13.85;54.94
13241;BME280;6687;47.790;7.322;2023-02-19T14:51:07;100036.47;;;13.58;55.42
13241;BME280;6687;47.790;7.322;2023-02-19T14:53:40;100038.75;;;13.23;54.28
13241;BME280;6687;47.790;7.322;2023-02-19T14:56:18;100052.09;;;13.58;54.40
13241;BME280;6687;47.790;7.322;2023-02-19T14:58:45;100044.34;;;13.67;54.33
13241;BME280;6687;47.790;7.322;2023-02-19T15:01:30;100044.25;;;13.57;54.97
13241;BME280;6687;47.790;7.322;2023-02-19T15:03:58;100055.59;;;13.62;54.51
13241;BME280;6687;47.790;7.322;2023-02-19T15:06:25;100058.06;;;13.45;55.35
13241;BME280;6687;47.790;7.322;2023-02-19T15:08:57;100052.81;;;13.39;55.01
13241;BME280;6687;47.790;7.322;2023-02-19T15:11:27;100053.53;;;13.24;55.47
13241;BME280;6687;47.790;7.322;2023-02-19T15:13:58;100059.31;;;12.93;55.92
13241;BME280;6687;47.790;7.322;2023-02-19T15:16:27;100057.19;;;13.41;56.72
13241;BME280;6687;47.790;7.322;2023-02-19T15:18:57;100049.56;;;13.67;58.04
13241;BME280;6687;47.790;7.322;2023-02-19T15:21:27;100044.47;;;13.83;58.83
13241;BME280;6687;47.790;7.322;2023-02-19T15:23:56;100053.03;;;13.69;60.03
13241;BME280;6687;47.790;7.322;2023-02-19T15:26:30;100052.97;;;13.60;58.35
13241;BME280;6687;47.790;7.322;2023-02-19T15:28:59;100064.25;;;13.62;59.56
13241;BME280;6687;47.790;7.322;2023-02-19T15:31:27;100067.09;;;13.93;61.35
13241;BME280;6687;47.790;7.322;2023-02-19T15:33:53;100069.50;;;13.68;59.92
13241;BME280;6687;47.790;7.322;2023-02-19T15:36:27;100080.94;;;13.86;61.93
13241;BME280;6687;47.790;7.322;2023-02-19T15:38:57;100079.28;;;13.97;61.67
13241;BME280;6687;47.790;7.322;2023-02-19T15:41:26;100074.09;;;14.03;62.16
13241;BME280;6687;47.790;7.322;2023-02-19T15:44:00;100078.47;;;14.12;62.84
13241;BME280;6687;47.790;7.322;2023-02-19T15:46:31;100077.56;;;13.99;62.24
13241;BME280;6687;47.790;7.322;2023-02-19T15:49:02;100072.38;;;14.07;63.39
13241;BME280;6687;47.790;7.322;2023-02-19T15:51:39;100077.56;;;14.02;63.36
13241;BME280;6687;47.790;7.322;2023-02-19T15:54:18;100076.78;;;14.12;63.45
13241;BME280;6687;47.790;7.322;2023-02-19T15:56:48;100087.09;;;13.99;61.65
13241;BME280;6687;47.790;7.322;2023-02-19T15:59:22;100091.38;;;13.92;60.64
13241;BME280;6687;47.790;7.322;2023-02-19T16:01:51;100089.69;;;13.97;62.76
13241;BME280;6687;47.790;7.322;2023-02-19T16:04:18;100100.91;;;13.84;60.60
13241;BME280;6687;47.790;7.322;2023-02-19T16:06:52;100096.69;;;14.07;63.44
13241;BME280;6687;47.790;7.322;2023-02-19T16:09:21;100098.34;;;13.93;62.49
13241;BME280;6687;47.790;7.322;2023-02-19T16:11:50;100095.81;;;14.05;63.65
13241;BME280;6687;47.790;7.322;2023-02-19T16:14:22;100094.94;;;14.06;64.15
13241;BME280;6687;47.790;7.322;2023-02-19T16:16:51;100099.28;;;14.06;63.93
13241;BME280;6687;47.790;7.322;2023-02-19T16:19:24;100102.69;;;13.91;63.44
13241;BME280;6687;47.790;7.322;2023-02-19T16:21:52;100107.81;;;13.79;62.76
13241;BME280;6687;47.790;7.322;2023-02-19T16:24:26;100122.41;;;13.58;61.19
13241;BME280;6687;47.790;7.322;2023-02-19T16:26:54;100123.28;;;13.57;60.56
13241;BME280;6687;47.790;7.322;2023-02-19T16:29:22;100124.94;;;13.49;60.85
13241;BME280;6687;47.790;7.322;2023-02-19T16:31:51;100123.22;;;13.52;60.51
13241;BME280;6687;47.790;7.322;2023-02-19T16:34:30;100133.38;;;13.28;59.41
13241;BME280;6687;47.790;7.322;2023-02-19T16:37:00;100136.53;;;12.98;59.48
13241;BME280;6687;47.790;7.322;2023-02-19T16:39:27;100131.69;;;13.30;61.27
13241;BME280;6687;47.790;7.322;2023-02-19T16:42:15;100129.03;;;13.25;60.47
13241;BME280;6687;47.790;7.322;2023-02-19T16:44:43;100140.31;;;13.27;62.40
13241;BME280;6687;47.790;7.322;2023-02-19T16:47:19;100136.03;;;13.32;61.70
13241;BME280;6687;47.790;7.322;2023-02-19T16:49:48;100134.78;;;12.97;60.89
13241;BME280;6687;47.790;7.322;2023-02-19T16:52:16;100134.88;;;13.06;60.58
13241;BME280;6687;47.790;7.322;2023-02-19T16:54:43;100136.63;;;13.07;60.16
13241;BME280;6687;47.790;7.322;2023-02-19T16:57:10;100136.81;;;13.27;63.33
13241;BME280;6687;47.790;7.322;2023-02-19T16:59:37;100156.59;;;13.08;62.76
13241;BME280;6687;47.790;7.322;2023-02-19T17:02:05;100162.66;;;13.08;62.30
13241;BME280;6687;47.790;7.322;2023-02-19T17:04:33;100162.75;;;13.13;64.56
13241;BME280;6687;47.790;7.322;2023-02-19T17:07:00;100165.03;;;12.88;65.43
13241;BME280;6687;47.790;7.322;2023-02-19T17:09:28;100159.16;;;13.03;63.52
13241;BME280;6687;47.790;7.322;2023-02-19T17:11:55;100167.53;;;12.78;62.98
13241;BME280;6687;47.790;7.322;2023-02-19T17:14:22;100165.09;;;12.94;65.26
13241;BME280;6687;47.790;7.322;2023-02-19T17:16:49;100164.16;;;12.88;65.30
13241;BME280;6687;47.790;7.322;2023-02-19T17:19:17;100154.09;;;13.17;67.41
13241;BME280;6687;47.790;7.322;2023-02-19T17:21:45;100167.69;;;12.91;65.75
13241;BME280;6687;47.790;7.322;2023-02-19T17:24:12;100164.91;;;12.76;65.50
13241;BME280;6687;47.790;7.322;2023-02-19T17:26:41;100151.28;;;12.99;67.47
13241;BME280;6687;47.790;7.322;2023-02-19T17:29:11;100148.81;;;13.09;67.49
13241;BME280;6687;47.790;7.322;2023-02-19T17:31:38;100153.88;;;12.97;67.00
13241;BME280;6687;47.790;7.322;2023-02-19T17:34:05;100160.63;;;12.83;66.08
13241;BME280;6687;47.790;7.322;2023-02-19T17:36:32;100169.31;;;12.82;65.57
13241;BME280;6687;47.790;7.322;2023-02-19T17:39:00;100168.53;;;12.90;67.02
13241;BME280;6687;47.790;7.322;2023-02-19T17:41:27;100165.19;;;12.99;68.55
13241;BME280;6687;47.790;7.322;2023-02-19T17:43:55;100162.31;;;12.79;67.07
13241;BME280;6687;47.790;7.322;2023-02-19T17:46:24;100168.38;;;12.78;67.23
13241;BME280;6687;47.790;7.322;2023-02-19T17:48:51;100164.66;;;12.58;66.32
13241;BME280;6687;47.790;7.322;2023-02-19T17:51:19;100159.75;;;12.82;67.65
13241;BME280;6687;47.790;7.322;2023-02-19T17:53:46;100158.69;;;12.66;67.21
13241;BME280;6687;47.790;7.322;2023-02-19T17:56:15;100161.34;;;12.71;66.42
13241;BME280;6687;47.790;7.322;2023-02-19T17:58:43;100161.81;;;12.41;66.08
13241;BME280;6687;47.790;7.322;2023-02-19T18:01:11;100171.88;;;12.16;65.06
13241;BME280;6687;47.790;7.322;2023-02-19T18:03:38;100157.50;;;12.41;65.53
13241;BME280;6687;47.790;7.322;2023-02-19T18:06:05;100160.69;;;12.20;64.96
13241;BME280;6687;47.790;7.322;2023-02-19T18:08:32;100165.41;;;11.91;65.43
13241;BME280;6687;47.790;7.322;2023-02-19T18:10:58;100169.09;;;12.05;65.50
13241;BME280;6687;47.790;7.322;2023-02-19T18:13:25;100162.19;;;12.04;65.36
13241;BME280;6687;47.790;7.322;2023-02-19T18:15:52;100166.06;;;11.79;65.92
13241;BME280;6687;47.790;7.322;2023-02-19T18:18:20;100163.56;;;11.84;65.56
13241;BME280;6687;47.790;7.322;2023-02-19T18:20:48;100157.97;;;12.12;66.29
13241;BME280;6687;47.790;7.322;2023-02-19T18:23:15;100158.78;;;12.11;66.45
13241;BME280;6687;47.790;7.322;2023-02-19T18:25:41;100158.38;;;11.84;66.02
13241;BME280;6687;47.790;7.322;2023-02-19T18:28:08;100164.13;;;11.67;66.19
13241;BME280;6687;47.790;7.322;2023-02-19T18:30:35;100160.22;;;11.91;66.70
13241;BME280;6687;47.790;7.322;2023-02-19T18:33:02;100166.63;;;11.61;66.33
13241;BME280;6687;47.790;7.322;2023-02-19T18:35:30;100169.50;;;11.77;66.51
13241;BME280;6687;47.790;7.322;2023-02-19T18:37:57;100163.56;;;11.84;66.89
13241;BME280;6687;47.790;7.322;2023-02-19T18:40:23;100154.66;;;11.69;66.27
13241;BME280;6687;47.790;7.322;2023-02-19T18:42:51;100156.34;;;11.67;66.89
13241;BME280;6687;47.790;7.322;2023-02-19T18:45:18;100158.56;;;11.46;66.68
13241;BME280;6687;47.790;7.322;2023-02-19T18:47:45;100148.28;;;11.50;66.78
13241;BME280;6687;47.790;7.322;2023-02-19T18:50:12;100148.22;;;11.47;66.84
13241;BME280;6687;47.790;7.322;2023-02-19T18:52:41;100149.47;;;11.69;67.57
13241;BME280;6687;47.790;7.322;2023-02-19T18:55:09;100144.44;;;11.79;70.16
13241;BME280;6687;47.790;7.322;2023-02-19T18:57:35;100148.50;;;11.63;68.37
13241;BME280;6687;47.790;7.322;2023-02-19T19:00:03;100171.75;;;11.57;66.90
13241;BME280;6687;47.790;7.322;2023-02-19T19:02:31;100190.13;;;11.20;66.95
13241;BME280;6687;47.790;7.322;2023-02-19T19:04:58;100193.50;;;11.16;67.52
13241;BME280;6687;47.790;7.322;2023-02-19T19:07:25;100183.06;;;11.13;67.39
13241;BME280;6687;47.790;7.322;2023-02-19T19:09:53;100182.72;;;11.40;68.01
13241;BME280;6687;47.790;7.322;2023-02-19T19:12:20;100180.47;;;11.60;69.58
13241;BME280;6687;47.790;7.322;2023-02-19T19:14:46;100184.72;;;11.57;69.06
13241;BME280;6687;47.790;7.322;2023-02-19T19:17:13;100184.91;;;11.67;69.58
13241;BME280;6687;47.790;7.322;2023-02-19T19:19:42;100180.59;;;11.69;71.05
13241;BME280;6687;47.790;7.322;2023-02-19T19:22:08;100168.41;;;11.62;72.10
13241;BME280;6687;47.790;7.322;2023-02-19T19:24:35;100168.31;;;11.59;71.25
13241;BME280;6687;47.790;7.322;2023-02-19T19:27:03;100168.22;;;11.53;70.79
13241;BME280;6687;47.790;7.322;2023-02-19T19:29:30;100177.81;;;11.10;69.47
13241;BME280;6687;47.790;7.322;2023-02-19T19:31:57;100182.16;;;11.11;68.89
13241;BME280;6687;47.790;7.322;2023-02-19T19:34:23;100185.69;;;11.14;68.20
13241;BME280;6687;47.790;7.322;2023-02-19T19:36:50;100191.28;;;10.92;68.63
13241;BME280;6687;47.790;7.322;2023-02-19T19:39:17;100201.66;;;10.90;68.68
13241;BME280;6687;47.790;7.322;2023-02-19T19:41:44;100207.00;;;11.00;68.51
13241;BME280;6687;47.790;7.322;2023-02-19T19:44:12;100202.78;;;11.05;68.12
13241;BME280;6687;47.790;7.322;2023-02-19T19:46:42;100214.09;;;11.08;68.38